createdAt,value
2018-07-30T00:02:02.313Z,24.62
2018-07-30T00:04:30.556Z,24.81
2018-07-30T00:06:58.757Z,24.68
2018-07-30T00:09:26.966Z,24.72
2018-07-30T00:11:55.130Z,24.60
2018-07-30T00:14:23.319Z,24.69
2018-07-30T00:16:51.511Z,24.60
2018-07-30T00:19:19.715Z,24.45
2018-07-30T00:21:48.109Z,24.54
2018-07-30T00:24:16.597Z,24.62
2018-07-30T00:26:44.761Z,24.50
2018-07-30T00:29:12.958Z,24.48
2018-07-30T00:31:41.191Z,24.29
2018-07-30T00:34:09.343Z,24.40
2018-07-30T00:36:37.603Z,24.40
2018-07-30T00:39:09.519Z,24.57
2018-07-30T00:41:37.737Z,24.42
2018-07-30T00:44:06.114Z,24.24
2018-07-30T00:46:34.347Z,24.37
2018-07-30T00:49:02.718Z,24.37
2018-07-30T00:51:30.968Z,24.15
2018-07-30T00:53:59.213Z,24.19
2018-07-30T00:56:27.439Z,24.25
2018-07-30T00:58:55.635Z,24.27
2018-07-30T01:01:23.903Z,24.38
2018-07-30T01:03:52.188Z,24.37
2018-07-30T01:06:20.431Z,24.16
2018-07-30T01:08:48.704Z,24.22
2018-07-30T01:11:16.865Z,24.46
2018-07-30T01:13:45.152Z,24.15
2018-07-30T01:16:13.360Z,24.24
2018-07-30T01:18:41.547Z,24.19
2018-07-30T01:21:09.894Z,24.20
2018-07-30T01:23:38.612Z,24.11
2018-07-30T01:26:12.280Z,24.11
2018-07-30T01:28:40.721Z,23.99
2018-07-30T01:31:08.898Z,24.06
2018-07-30T01:33:37.285Z,23.97
2018-07-30T01:36:06.459Z,24.01
2018-07-30T01:38:34.642Z,24.01
2018-07-30T01:41:02.836Z,23.91
2018-07-30T01:43:32.884Z,24.03
2018-07-30T01:46:01.209Z,23.87
2018-07-30T01:48:29.634Z,24.01
2018-07-30T01:50:57.810Z,23.98
2018-07-30T01:53:26.049Z,23.93
2018-07-30T01:55:54.449Z,23.84
2018-07-30T01:58:22.598Z,23.70
2018-07-30T02:00:50.875Z,23.98
2018-07-30T02:03:19.040Z,23.84
2018-07-30T02:05:47.217Z,23.70
2018-07-30T02:08:15.344Z,23.65
2018-07-30T02:10:43.614Z,23.50
2018-07-30T02:13:11.838Z,23.50
2018-07-30T02:15:40.085Z,23.46
2018-07-30T02:18:08.323Z,23.59
2018-07-30T02:20:38.546Z,23.57
2018-07-30T02:23:06.757Z,23.50
2018-07-30T02:25:35.012Z,23.38
2018-07-30T02:28:14.684Z,23.21
2018-07-30T02:30:43.590Z,23.31
2018-07-30T02:33:11.755Z,23.32
2018-07-30T02:35:39.974Z,23.42
2018-07-30T02:38:08.181Z,23.20
2018-07-30T02:40:36.336Z,22.99
2018-07-30T02:43:05.168Z,22.99
2018-07-30T02:45:33.369Z,23.10
2018-07-30T02:48:02.755Z,23.08
2018-07-30T02:50:30.977Z,23.03
2018-07-30T02:52:59.459Z,22.84
2018-07-30T02:55:28.266Z,22.92
2018-07-30T02:57:56.520Z,22.95
2018-07-30T03:00:24.722Z,22.88
2018-07-30T03:02:52.905Z,22.96
2018-07-30T03:05:21.620Z,22.83
2018-07-30T03:07:49.810Z,22.83
2018-07-30T03:10:18.069Z,22.88
2018-07-30T03:12:46.293Z,23.03
2018-07-30T03:15:14.544Z,22.91
2018-07-30T03:17:42.764Z,22.75
2018-07-30T03:20:11.109Z,22.84
2018-07-30T03:22:39.340Z,22.75
2018-07-30T03:25:07.959Z,22.73
2018-07-30T03:27:36.974Z,22.67
2018-07-30T03:30:07.255Z,22.69
2018-07-30T03:32:35.564Z,22.84
2018-07-30T03:35:03.766Z,22.81
2018-07-30T03:37:31.916Z,22.86
2018-07-30T03:40:00.167Z,22.95
2018-07-30T03:42:28.426Z,22.93
2018-07-30T03:44:56.608Z,22.95
2018-07-30T03:47:24.817Z,22.89
2018-07-30T03:49:53.044Z,22.61
2018-07-30T03:52:21.241Z,22.91
2018-07-30T03:54:50.096Z,22.99
2018-07-30T03:57:19.284Z,22.59
2018-07-30T03:59:47.468Z,22.68
2018-07-30T04:02:15.675Z,22.87
2018-07-30T04:04:44.005Z,22.94
2018-07-30T04:07:12.321Z,22.99
2018-07-30T04:09:40.480Z,23.00
2018-07-30T04:12:08.697Z,23.09
2018-07-30T04:14:36.875Z,23.06
2018-07-30T04:17:05.046Z,22.99
2018-07-30T04:19:33.541Z,23.16
2018-07-30T04:22:01.751Z,23.28
2018-07-30T04:24:30.005Z,23.16
2018-07-30T04:26:58.201Z,23.18
2018-07-30T04:29:26.384Z,23.28
2018-07-30T04:31:55.588Z,23.36
2018-07-30T04:34:23.878Z,23.34
2018-07-30T04:36:52.077Z,23.23
2018-07-30T04:39:20.247Z,23.26
2018-07-30T04:41:49.462Z,23.30
2018-07-30T04:44:17.649Z,23.45
2018-07-30T04:46:45.824Z,23.46
2018-07-30T04:49:14.643Z,23.50
2018-07-30T04:51:42.943Z,23.47
2018-07-30T04:54:11.268Z,23.41
2018-07-30T04:56:40.330Z,23.50
2018-07-30T04:59:08.506Z,23.70
2018-07-30T05:01:36.687Z,23.44
2018-07-30T05:04:04.898Z,23.51
2018-07-30T05:06:33.046Z,23.59
2018-07-30T05:09:01.216Z,23.52
2018-07-30T05:11:30.643Z,23.46
2018-07-30T05:13:58.790Z,23.56
2018-07-30T05:16:26.957Z,23.72
2018-07-30T05:18:55.889Z,23.64
2018-07-30T05:22:15.121Z,23.60
2018-07-30T05:24:43.417Z,23.63
2018-07-30T05:27:11.687Z,23.72
2018-07-30T05:29:40.497Z,23.81
2018-07-30T05:39:16.196Z,23.63
2018-07-30T05:41:44.370Z,23.55
2018-07-30T05:44:12.533Z,23.59
2018-07-30T05:46:41.432Z,23.65
2018-07-30T05:49:09.615Z,23.66
2018-07-30T05:51:37.780Z,23.86
2018-07-30T05:54:06.029Z,23.78
2018-07-30T05:56:34.183Z,23.81
2018-07-30T05:59:02.330Z,23.85
2018-07-30T06:01:30.574Z,23.86
2018-07-30T06:03:58.723Z,23.86
2018-07-30T06:06:26.907Z,23.89
2018-07-30T06:08:55.111Z,23.88
2018-07-30T06:11:23.317Z,23.98
2018-07-30T06:13:51.536Z,24.03
2018-07-30T06:16:19.711Z,24.11
2018-07-30T06:18:47.905Z,24.13
2018-07-30T06:21:16.139Z,23.98
2018-07-30T06:23:44.301Z,24.08
2018-07-30T06:26:12.593Z,24.19
2018-07-30T06:28:40.826Z,24.35
2018-07-30T06:31:08.990Z,24.21
2018-07-30T06:33:37.140Z,24.35
2018-07-30T06:36:07.886Z,24.40
2018-07-30T06:38:44.673Z,24.31
2018-07-30T06:41:16.940Z,24.40
2018-07-30T06:43:45.125Z,24.44
2018-07-30T06:46:13.281Z,24.56
2018-07-30T06:48:41.539Z,24.49
2018-07-30T06:51:09.712Z,24.67
2018-07-30T06:53:37.976Z,24.59
2018-07-30T06:56:06.261Z,24.67
2018-07-30T06:58:34.554Z,24.67
2018-07-30T07:01:02.711Z,24.79
2018-07-30T07:03:30.888Z,24.77
2018-07-30T07:05:59.083Z,24.79
2018-07-30T07:08:27.293Z,24.80
2018-07-30T07:10:55.651Z,24.89
2018-07-30T07:13:23.832Z,24.84
2018-07-30T07:15:52.008Z,24.90
2018-07-30T07:18:20.308Z,24.94
2018-07-30T07:20:48.558Z,25.01
2018-07-30T07:23:16.690Z,25.11
2018-07-30T07:25:44.961Z,25.23
2018-07-30T07:28:13.275Z,25.33
2018-07-30T07:30:41.527Z,25.33
2018-07-30T07:33:09.719Z,25.46
2018-07-30T07:35:39.178Z,25.42
2018-07-30T07:38:12.163Z,25.39
2018-07-30T07:40:40.429Z,25.46
2018-07-30T07:43:08.746Z,25.53
2018-07-30T07:45:36.987Z,25.51
2018-07-30T07:48:06.785Z,25.60
2018-07-30T07:50:35.967Z,25.59
2018-07-30T07:53:04.778Z,25.72
2018-07-30T07:55:33.811Z,25.72
2018-07-30T07:58:02.669Z,25.68
2018-07-30T08:00:31.549Z,25.82
2018-07-30T08:03:00.458Z,25.76
2018-07-30T08:05:29.281Z,25.95
2018-07-30T08:07:58.157Z,25.98
2018-07-30T08:10:27.081Z,26.01
2018-07-30T08:12:55.957Z,26.16
2018-07-30T08:15:24.990Z,26.05
2018-07-30T08:17:53.860Z,26.20
2018-07-30T08:20:22.705Z,26.15
2018-07-30T08:22:51.943Z,26.16
2018-07-30T08:25:20.822Z,26.31
2018-07-30T08:27:49.739Z,26.32
2018-07-30T08:30:18.661Z,26.55
2018-07-30T08:32:47.874Z,26.53
2018-07-30T08:35:16.794Z,26.42
2018-07-30T08:37:51.713Z,26.40
2018-07-30T08:40:22.169Z,26.32
2018-07-30T08:42:54.725Z,26.39
2018-07-30T08:45:24.368Z,26.38
2018-07-30T08:47:53.356Z,26.36
2018-07-30T08:50:23.001Z,26.67
2018-07-30T08:52:51.924Z,26.56
2018-07-30T08:55:20.890Z,26.57
2018-07-30T08:57:52.385Z,26.92
2018-07-30T09:00:21.968Z,26.89
2018-07-30T09:02:50.813Z,27.11
2018-07-30T09:05:20.088Z,27.01
2018-07-30T09:07:51.662Z,26.93
2018-07-30T09:10:21.701Z,26.79
2018-07-30T09:12:50.715Z,27.11
2018-07-30T09:15:19.631Z,26.96
2018-07-30T09:17:48.713Z,26.89
2018-07-30T09:20:17.637Z,26.79
2018-07-30T09:22:46.532Z,26.97
2018-07-30T09:25:15.994Z,27.08
2018-07-30T09:27:44.940Z,27.22
2018-07-30T09:30:13.909Z,27.24
2018-07-30T09:32:42.768Z,27.14
2018-07-30T09:35:11.648Z,27.27
2018-07-30T09:37:40.597Z,27.23
2018-07-30T09:40:09.433Z,27.36
2018-07-30T09:42:38.516Z,27.40
2018-07-30T09:45:07.380Z,27.47
2018-07-30T09:47:36.234Z,27.56
2018-07-30T09:50:07.636Z,27.42
2018-07-30T09:52:36.882Z,27.50
2018-07-30T09:55:05.853Z,27.62
2018-07-30T09:57:34.810Z,27.65
2018-07-30T10:00:05.701Z,27.68
2018-07-30T10:02:38.313Z,27.60
2018-07-30T10:05:07.167Z,27.84
2018-07-30T10:07:36.181Z,28.06
2018-07-30T10:10:06.375Z,27.91
2018-07-30T10:12:37.897Z,28.07
2018-07-30T10:15:07.451Z,27.88
2018-07-30T10:17:36.290Z,27.92
2018-07-30T10:20:06.356Z,27.98
2018-07-30T10:22:37.027Z,28.07
2018-07-30T10:25:07.295Z,27.98
2018-07-30T10:27:36.136Z,28.20
2018-07-30T10:30:05.757Z,28.21
2018-07-30T10:32:37.376Z,28.47
2018-07-30T10:35:07.142Z,28.39
2018-07-30T10:37:38.370Z,28.55
2018-07-30T10:40:08.228Z,28.55
2018-07-30T10:42:37.081Z,28.66
2018-07-30T10:45:05.949Z,28.77
2018-07-30T10:47:34.845Z,28.89
2018-07-30T10:50:04.148Z,29.01
2018-07-30T10:52:33.066Z,28.92
2018-07-30T10:55:01.884Z,29.10
2018-07-30T10:57:30.846Z,29.00
2018-07-30T10:59:59.783Z,29.11
2018-07-30T11:02:28.670Z,29.45
2018-07-30T11:04:57.660Z,29.51
2018-07-30T11:07:26.553Z,29.55
2018-07-30T11:09:57.088Z,29.70
2018-07-30T11:12:27.331Z,29.78
2018-07-30T11:14:56.270Z,29.35
2018-07-30T11:17:25.011Z,29.29
2018-07-30T11:19:53.928Z,29.25
2018-07-30T11:22:22.761Z,29.81
2018-07-30T11:24:51.612Z,29.59
2018-07-30T11:27:20.512Z,29.40
2018-07-30T11:29:49.361Z,29.66
2018-07-30T11:32:18.224Z,29.61
2018-07-30T11:34:47.145Z,29.65
2018-07-30T11:37:16.217Z,29.85
2018-07-30T11:39:45.163Z,30.12
2018-07-30T11:42:14.789Z,29.92
2018-07-30T11:44:43.685Z,29.58
2018-07-30T11:47:12.552Z,29.64
2018-07-30T11:49:41.436Z,29.63
2018-07-30T11:52:10.339Z,29.85
2018-07-30T11:54:39.229Z,30.14
2018-07-30T11:57:23.460Z,29.86
2018-07-30T12:00:02.898Z,29.64
2018-07-30T12:02:34.747Z,29.96
2018-07-30T12:05:09.741Z,29.90
2018-07-30T12:07:51.332Z,29.85
2018-07-30T12:10:24.848Z,29.49
2018-07-30T12:12:53.937Z,29.47
2018-07-30T12:15:23.321Z,29.60
2018-07-30T12:17:52.193Z,29.64
2018-07-30T12:20:21.555Z,29.81
2018-07-30T12:22:50.417Z,29.80
2018-07-30T12:25:19.309Z,30.18
2018-07-30T12:27:48.205Z,30.13
2018-07-30T12:30:17.152Z,30.11
2018-07-30T12:32:49.076Z,30.42
2018-07-30T12:35:17.935Z,30.34
2018-07-30T12:37:46.849Z,30.40
2018-07-30T12:40:16.657Z,30.30
2018-07-30T12:42:45.535Z,30.31
2018-07-30T12:45:14.420Z,30.60
2018-07-30T12:47:43.278Z,30.66
2018-07-30T12:50:12.166Z,30.69
2018-07-30T12:52:40.989Z,30.62
2018-07-30T12:55:09.872Z,30.80
2018-07-30T12:57:39.700Z,30.68
2018-07-30T13:00:08.571Z,30.93
2018-07-30T13:02:37.491Z,30.77
2018-07-30T13:05:06.450Z,30.79
2018-07-30T13:07:35.282Z,31.08
2018-07-30T13:10:04.203Z,31.16
2018-07-30T13:12:33.119Z,30.68
2018-07-30T13:15:01.971Z,31.08
2018-07-30T13:17:30.885Z,30.94
2018-07-30T13:19:59.908Z,31.00
2018-07-30T13:22:29.063Z,31.11
2018-07-30T13:24:58.614Z,31.08
2018-07-30T13:27:27.717Z,30.90
2018-07-30T13:29:56.790Z,31.34
2018-07-30T13:32:25.721Z,31.31
2018-07-30T13:34:54.799Z,31.25
2018-07-30T13:37:23.641Z,31.32
2018-07-30T13:39:53.349Z,31.29
2018-07-30T13:42:22.181Z,30.89
2018-07-30T13:44:51.150Z,31.25
2018-07-30T13:47:20.104Z,31.04
2018-07-30T13:49:48.996Z,31.19
2018-07-30T13:52:17.915Z,31.34
2018-07-30T13:54:46.823Z,31.33
2018-07-30T13:57:15.671Z,30.84
2018-07-30T13:59:44.562Z,31.09
2018-07-30T14:02:13.436Z,31.23
2018-07-30T14:04:42.300Z,31.22
2018-07-30T14:07:11.296Z,31.38
2018-07-30T14:09:40.162Z,31.35
2018-07-30T14:12:09.003Z,31.47
2018-07-30T14:14:37.958Z,31.62
2018-07-30T14:17:06.784Z,31.49
2018-07-30T14:19:35.677Z,31.30
2018-07-30T14:22:04.649Z,31.42
2018-07-30T14:24:33.516Z,31.65
2018-07-30T14:27:02.335Z,31.70
2018-07-30T14:29:31.306Z,31.86
2018-07-30T14:32:00.151Z,31.44
2018-07-30T14:34:29.035Z,31.30
2018-07-30T14:36:58.218Z,31.15
2018-07-30T14:39:27.179Z,31.29
2018-07-30T14:41:56.191Z,31.57
2018-07-30T14:44:25.048Z,31.59
2018-07-30T14:46:54.070Z,31.64
2018-07-30T14:49:23.021Z,31.62
2018-07-30T14:51:51.904Z,31.89
2018-07-30T14:54:20.785Z,32.07
2018-07-30T14:56:49.712Z,32.46
2018-07-30T14:59:18.927Z,32.46
2018-07-30T15:01:47.976Z,32.30
2018-07-30T15:04:16.835Z,32.20
2018-07-30T15:06:45.768Z,32.49
2018-07-30T15:09:14.859Z,32.38
2018-07-30T15:11:43.793Z,32.33
2018-07-30T15:14:12.746Z,32.39
2018-07-30T15:16:41.643Z,32.25
2018-07-30T15:19:10.587Z,31.87
2018-07-30T15:21:39.369Z,31.76
2018-07-30T15:24:08.361Z,31.73
2018-07-30T15:26:37.194Z,31.84
2018-07-30T15:29:06.124Z,32.26
2018-07-30T15:31:35.002Z,32.49
2018-07-30T15:34:04.005Z,32.59
2018-07-30T15:36:32.856Z,32.41
2018-07-30T15:39:01.757Z,32.33
2018-07-30T15:41:30.595Z,32.51
2018-07-30T15:43:59.485Z,32.34
2018-07-30T15:46:28.445Z,32.64
2018-07-30T15:48:57.320Z,32.73
2018-07-30T15:51:26.227Z,32.71
2018-07-30T15:53:55.163Z,32.88
2018-07-30T15:56:24.031Z,32.85
2018-07-30T15:58:52.917Z,33.06
2018-07-30T16:01:21.874Z,32.54
2018-07-30T16:03:50.846Z,32.67
2018-07-30T16:06:20.492Z,32.42
2018-07-30T16:08:49.581Z,32.53
2018-07-30T16:11:18.475Z,32.83
2018-07-30T16:13:47.498Z,33.07
2018-07-30T16:16:16.398Z,32.71
2018-07-30T16:18:45.354Z,32.30
2018-07-30T16:21:14.276Z,32.28
2018-07-30T16:23:43.255Z,32.09
2018-07-30T16:26:12.165Z,31.98
2018-07-30T16:28:42.145Z,31.84
2018-07-30T16:31:11.053Z,31.81
2018-07-30T16:33:39.957Z,31.94
2018-07-30T16:36:08.989Z,32.09
2018-07-30T16:38:37.895Z,32.34
2018-07-30T16:41:06.973Z,32.50
2018-07-30T16:43:35.874Z,32.57
2018-07-30T16:46:04.780Z,32.63
2018-07-30T16:48:33.689Z,32.51
2018-07-30T16:51:02.633Z,32.40
2018-07-30T16:53:31.653Z,32.32
2018-07-30T16:56:00.508Z,32.13
2018-07-30T16:58:29.421Z,32.08
2018-07-30T17:00:58.476Z,31.94
2018-07-30T17:03:27.389Z,32.01
2018-07-30T17:05:56.444Z,31.79
2018-07-30T17:08:25.409Z,31.85
2018-07-30T17:10:54.401Z,31.82
2018-07-30T17:13:24.500Z,31.76
2018-07-30T17:15:53.552Z,31.72
2018-07-30T17:18:22.498Z,31.74
2018-07-30T17:20:52.529Z,31.69
2018-07-30T17:23:21.379Z,31.59
2018-07-30T17:25:50.257Z,31.73
2018-07-30T17:28:19.145Z,31.71
2018-07-30T17:30:48.019Z,31.66
2018-07-30T17:33:17.416Z,31.67
2018-07-30T17:35:46.360Z,31.54
2018-07-30T17:38:15.305Z,31.56
2018-07-30T17:40:44.191Z,31.60
2018-07-30T17:43:13.140Z,31.62
2018-07-30T17:45:42.096Z,31.56
2018-07-30T17:48:10.922Z,31.56
2018-07-30T17:50:39.870Z,31.53
2018-07-30T17:53:08.930Z,31.36
2018-07-30T17:55:37.860Z,31.46
2018-07-30T17:58:06.763Z,31.34
2018-07-30T18:00:35.755Z,31.35
2018-07-30T18:03:04.644Z,31.34
2018-07-30T18:05:33.644Z,31.25
2018-07-30T18:08:02.642Z,31.31
2018-07-30T18:10:31.689Z,31.30
2018-07-30T18:13:00.571Z,31.30
2018-07-30T18:15:29.512Z,31.37
2018-07-30T18:17:58.416Z,31.40
2018-07-30T18:20:27.421Z,31.38
2018-07-30T18:22:56.301Z,31.42
2018-07-30T18:25:25.602Z,31.36
2018-07-30T18:27:54.511Z,31.26
2018-07-30T18:30:24.349Z,31.23
2018-07-30T18:32:55.093Z,31.21
2018-07-30T18:35:25.718Z,31.18
2018-07-30T18:37:58.817Z,31.16
2018-07-30T18:40:42.849Z,31.16
2018-07-30T18:43:25.702Z,31.08
2018-07-30T18:45:54.924Z,31.05
2018-07-30T18:48:23.820Z,30.94
2018-07-30T18:50:52.700Z,30.92
2018-07-30T18:53:21.575Z,30.85
2018-07-30T18:55:50.503Z,30.89
2018-07-30T18:58:19.549Z,30.81
2018-07-30T19:00:48.449Z,30.68
2018-07-30T19:03:17.462Z,30.62
2018-07-30T19:05:46.356Z,30.36
2018-07-30T19:08:15.304Z,30.07
2018-07-30T19:10:44.283Z,30.02
2018-07-30T19:13:13.311Z,29.99
2018-07-30T19:15:43.054Z,30.18
2018-07-30T19:18:11.930Z,30.15
2018-07-30T19:20:40.781Z,29.90
2018-07-30T19:23:09.879Z,29.85
2018-07-30T19:25:38.765Z,29.92
2018-07-30T19:28:07.753Z,30.02
2018-07-30T19:30:36.601Z,30.11
2018-07-30T19:33:05.517Z,29.91
2018-07-30T19:35:35.452Z,30.00
2018-07-30T19:38:04.390Z,29.97
2018-07-30T19:40:33.316Z,30.05
2018-07-30T19:43:02.317Z,29.99
2018-07-30T19:45:31.243Z,29.94
2018-07-30T19:48:00.917Z,29.89
2018-07-30T19:50:29.826Z,29.93
2018-07-30T19:52:58.735Z,29.80
2018-07-30T19:55:27.667Z,29.83
2018-07-30T19:57:56.781Z,29.53
2018-07-30T20:00:25.713Z,29.31
2018-07-30T20:02:54.672Z,29.02
2018-07-30T20:05:23.522Z,28.92
2018-07-30T20:07:52.726Z,28.86
2018-07-30T20:10:22.055Z,28.72
2018-07-30T20:12:50.995Z,28.65
2018-07-30T20:15:20.015Z,28.70
2018-07-30T20:17:48.910Z,28.62
2018-07-30T20:20:17.832Z,28.50
2018-07-30T20:22:46.815Z,28.52
2018-07-30T20:25:15.776Z,28.89
2018-07-30T20:27:44.756Z,28.84
2018-07-30T20:30:13.623Z,28.71
2018-07-30T20:32:42.729Z,28.82
2018-07-30T20:35:11.749Z,28.93
2018-07-30T20:37:40.714Z,29.03
2018-07-30T20:40:10.027Z,28.95
2018-07-30T20:42:38.900Z,28.79
2018-07-30T20:45:07.796Z,28.67
2018-07-30T20:47:36.791Z,28.48
2018-07-30T20:50:05.743Z,28.32
2018-07-30T20:52:34.806Z,28.22
2018-07-30T20:55:03.741Z,28.08
2018-07-30T20:57:32.624Z,28.14
2018-07-30T21:00:01.692Z,28.17
2018-07-30T21:02:30.779Z,28.27
2018-07-30T21:04:59.763Z,28.25
2018-07-30T21:07:28.787Z,28.19
2018-07-30T21:09:58.867Z,28.15
2018-07-30T21:12:28.253Z,28.27
2018-07-30T21:14:57.224Z,28.18
2018-07-30T21:17:26.116Z,28.17
2018-07-30T21:19:55.005Z,27.83
2018-07-30T21:22:24.773Z,27.79
2018-07-30T21:24:53.669Z,27.84
2018-07-30T21:27:23.044Z,27.84
2018-07-30T21:29:51.972Z,27.55
2018-07-30T21:32:20.992Z,27.41
2018-07-30T21:34:49.927Z,27.59
2018-07-30T21:37:18.859Z,27.65
2018-07-30T21:39:48.711Z,27.49
2018-07-30T21:42:17.580Z,27.35
2018-07-30T21:44:46.586Z,27.59
2018-07-30T21:47:16.367Z,27.69
2018-07-30T21:49:45.253Z,27.76
2018-07-30T21:52:14.256Z,27.67
2018-07-30T21:54:43.218Z,27.64
2018-07-30T21:57:12.119Z,27.64
2018-07-30T21:59:41.135Z,27.57
2018-07-30T22:02:10.295Z,27.36
2018-07-30T22:04:39.405Z,27.22
2018-07-30T22:07:08.639Z,27.27
2018-07-30T22:12:12.559Z,27.10
2018-07-30T22:14:41.644Z,27.20
2018-07-30T22:17:10.557Z,27.09
2018-07-30T22:19:39.571Z,27.09
2018-07-30T22:22:08.587Z,26.99
2018-07-30T22:24:40.373Z,27.09
2018-07-30T22:27:10.601Z,27.08
2018-07-30T22:29:41.318Z,26.98
2018-07-30T22:32:11.377Z,26.95
2018-07-30T22:34:41.397Z,26.98
2018-07-30T22:37:10.977Z,26.99
2018-07-30T22:39:40.806Z,26.90
2018-07-30T22:42:10.164Z,26.90
2018-07-30T22:44:40.321Z,26.85
2018-07-30T22:47:10.900Z,26.94
2018-07-30T22:49:40.755Z,26.95
2018-07-30T22:52:11.149Z,26.98
2018-07-30T22:54:42.187Z,26.87
2018-07-30T22:57:12.348Z,26.92
2018-07-30T22:59:42.650Z,26.91
2018-07-30T23:04:47.304Z,26.58
2018-07-30T23:07:16.424Z,26.75
2018-07-30T23:09:45.400Z,26.66
2018-07-30T23:12:14.393Z,26.56
2018-07-30T23:14:43.445Z,26.55
2018-07-30T23:17:13.307Z,26.62
2018-07-30T23:19:42.402Z,26.63
2018-07-30T23:22:11.393Z,26.55
2018-07-30T23:24:40.414Z,26.54
2018-07-30T23:27:09.368Z,26.59
2018-07-30T23:29:38.409Z,26.71
2018-07-30T23:32:07.360Z,26.82
2018-07-30T23:34:36.508Z,26.88
2018-07-30T23:37:06.231Z,26.74
2018-07-30T23:39:35.193Z,26.72
2018-07-30T23:42:04.212Z,26.81
2018-07-30T23:44:33.196Z,26.74
2018-07-30T23:47:02.362Z,26.74
2018-07-30T23:49:31.398Z,26.67
2018-07-30T23:52:02.321Z,26.80
2018-07-30T23:54:31.311Z,26.68
2018-07-30T23:57:00.269Z,26.79
2018-07-30T23:59:29.722Z,26.82
